Time;durP1;ratioP1;P1;durP2;ratioP2;P2;SDS_P1;SDS_P2;PMS_P1;PMS_P2;Temp;Humidity;BMP_temperature;BMP_pressure;BME280_temperature;BME280_humidity;BME280_pressure;Samples;Min_cycle;Max_cycle;Signal;HPM_P1;HPM_P2
2021/03/25 00:01:00;;;;;;;1999.90;999.90;;;8.20;99.90;;;;;;5034268;28;20411;-71
2021/03/25 00:03:25;;;;;;;1999.90;999.90;;;8.20;99.90;;;;;;5034264;28;20545;-71
2021/03/25 00:05:52;;;;;;;1999.90;999.90;;;8.20;99.90;;;;;;5034148;28;21051;-70
2021/03/25 00:08:24;;;;;;;1999.90;999.90;;;8.30;99.90;;;;;;5033719;28;20227;-70
2021/03/25 00:10:50;;;;;;;1999.90;999.90;;;8.20;99.90;;;;;;5033525;28;20461;-70
2021/03/25 00:13:17;;;;;;;1999.90;999.90;;;8.30;99.90;;;;;;5034102;28;20406;-71
2021/03/25 00:15:43;;;;;;;1999.90;999.90;;;8.30;99.90;;;;;;5033716;28;20412;-71
2021/03/25 00:18:10;;;;;;;1999.90;999.90;;;8.40;99.90;;;;;;5033871;28;20454;-70
2021/03/25 00:20:35;;;;;;;1999.90;999.90;;;8.30;99.90;;;;;;5033991;28;20973;-70
2021/03/25 00:23:01;;;;;;;1999.90;999.90;;;8.30;99.90;;;;;;5033881;28;20483;-70
2021/03/25 00:25:31;;;;;;;1999.90;999.90;;;8.20;99.90;;;;;;5033635;28;20203;-70
2021/03/25 00:27:57;;;;;;;1999.90;999.90;;;8.20;99.90;;;;;;5033779;28;20464;-70
2021/03/25 00:30:26;;;;;;;1999.90;999.90;;;8.30;99.90;;;;;;5033633;28;20451;-70
2021/03/25 00:32:51;;;;;;;1999.90;999.90;;;8.20;99.90;;;;;;5033746;28;20408;-71
2021/03/25 00:35:18;;;;;;;1999.90;999.90;;;8.20;99.90;;;;;;5033353;28;20415;-71
2021/03/25 00:37:44;;;;;;;1999.90;999.90;;;8.20;99.90;;;;;;5033552;28;20172;-70
2021/03/25 00:40:11;;;;;;;1999.90;999.90;;;8.10;99.90;;;;;;5033516;28;20505;-71
2021/03/25 00:42:38;;;;;;;1999.90;999.90;;;8.10;99.90;;;;;;5033503;28;20175;-70
2021/03/25 00:45:11;;;;;;;1999.90;999.90;;;8.10;99.90;;;;;;5033147;28;20411;-70
2021/03/25 00:47:37;;;;;;;1999.90;999.90;;;7.90;99.90;;;;;;5032206;28;20409;-71
2021/03/25 00:50:07;;;;;;;1999.90;999.90;;;7.90;99.90;;;;;;5033302;28;21037;-70
2021/03/25 00:52:33;;;;;;;1999.90;999.90;;;7.80;99.90;;;;;;5033369;28;20171;-71
2021/03/25 00:54:58;;;;;;;1999.90;999.90;;;7.70;99.90;;;;;;5033028;28;20466;-70
2021/03/25 00:57:24;;;;;;;1999.90;999.90;;;7.70;99.90;;;;;;5033248;28;20178;-70
2021/03/25 00:59:49;;;;;;;1999.90;999.90;;;7.80;99.90;;;;;;5033148;28;20197;-71
2021/03/25 01:02:15;;;;;;;1999.90;999.90;;;7.80;99.90;;;;;;5033103;28;20168;-71
2021/03/25 01:04:41;;;;;;;1999.90;999.90;;;7.90;99.90;;;;;;5033068;28;20293;-70
2021/03/25 01:10:39;;;;;;;1999.90;999.90;;;7.70;99.90;;;;;;5032991;28;20184;-71
2021/03/25 01:13:28;;;;;;;1999.90;999.90;;;7.60;99.90;;;;;;5032935;28;20949;-70
2021/03/25 01:15:53;;;;;;;1999.90;999.90;;;7.70;99.90;;;;;;5027077;28;20419;-70
2021/03/25 01:18:19;;;;;;;1999.90;999.90;;;7.60;99.90;;;;;;5032755;28;21028;-70
2021/03/25 01:20:45;;;;;;;1999.90;999.90;;;7.60;99.90;;;;;;5032644;28;20169;-71
2021/03/25 01:23:11;;;;;;;1999.90;999.90;;;7.60;99.90;;;;;;5032673;28;20194;-71
2021/03/25 01:25:38;;;;;;;1999.90;999.90;;;7.70;99.90;;;;;;5032550;28;20769;-71
2021/03/25 01:28:06;;;;;;;1999.90;999.90;;;7.70;99.90;;;;;;5032569;28;20427;-71
2021/03/25 01:30:33;;;;;;;1999.90;999.90;;;7.70;99.90;;;;;;5032628;28;20861;-70
2021/03/25 01:33:00;;;;;;;1999.90;999.90;;;7.50;99.90;;;;;;5032615;28;20400;-70
2021/03/25 01:35:27;;;;;;;1999.90;999.90;;;7.40;99.90;;;;;;5032287;28;20413;-71
2021/03/25 01:37:53;;;;;;;1999.90;999.90;;;7.40;99.90;;;;;;5032402;28;20400;-70
2021/03/25 01:40:32;;;;;;;1999.90;999.90;;;7.30;99.90;;;;;;5032435;28;20404;-70
2021/03/25 01:43:09;;;;;;;1999.90;999.90;;;7.30;99.90;;;;;;5032491;28;20495;-70
2021/03/25 01:45:46;;;;;;;1999.90;999.90;;;7.20;99.90;;;;;;5032148;28;20466;-71
2021/03/25 01:48:13;;;;;;;1999.90;999.90;;;7.20;99.90;;;;;;5032385;28;20423;-71
2021/03/25 01:50:39;;;;;;;1999.90;999.90;;;7.00;99.90;;;;;;5032194;28;20442;-70
2021/03/25 01:53:26;;;;;;;1999.90;999.90;;;6.90;99.90;;;;;;5032227;28;20391;-70
2021/03/25 01:56:14;;;;;;;1999.90;999.90;;;6.90;99.90;;;;;;5031962;28;20403;-70
2021/03/25 01:59:12;;;;;;;1999.90;999.90;;;6.80;99.90;;;;;;5031115;28;20462;-70
2021/03/25 02:01:42;;;;;;;1999.90;999.90;;;6.70;99.90;;;;;;5032254;28;20768;-71
2021/03/25 02:04:44;;;;;;;1999.90;999.90;;;6.70;99.90;;;;;;5032064;28;20399;-70
2021/03/25 02:07:42;;;;;;;1999.90;999.90;;;6.60;99.90;;;;;;5031935;28;20915;-70
2021/03/25 02:10:35;;;;;;;1999.90;999.90;;;6.70;99.90;;;;;;4996070;28;20474;-70
2021/03/25 02:13:16;;;;;;;1999.90;999.90;;;6.70;99.90;;;;;;5032178;28;20415;-71
2021/03/25 02:15:41;;;;;;;1999.90;999.90;;;6.70;99.90;;;;;;5031738;28;20931;-70
2021/03/25 02:18:19;;;;;;;1999.90;999.90;;;6.70;99.90;;;;;;5031961;28;20526;-69
2021/03/25 02:21:16;;;;;;;1999.90;999.90;;;6.70;99.90;;;;;;5031988;28;20160;-70
2021/03/25 02:23:54;;;;;;;1999.90;999.90;;;6.70;99.90;;;;;;5031918;28;20403;-70
2021/03/25 02:26:26;;;;;;;1999.90;999.90;;;6.70;99.90;;;;;;5031624;28;20399;-70
2021/03/25 02:29:06;;;;;;;1999.90;999.90;;;6.60;99.90;;;;;;5031819;28;20769;-70
2021/03/25 02:31:37;;;;;;;1999.90;999.90;;;6.50;99.90;;;;;;5031748;28;20533;-71
2021/03/25 02:34:08;;;;;;;1999.90;999.90;;;6.50;99.90;;;;;;5035716;28;20886;-71
2021/03/25 02:36:57;;;;;;;1999.90;999.90;;;6.50;99.90;;;;;;5035609;28;20395;-70
2021/03/25 02:39:33;;;;;;;1999.90;999.90;;;6.40;99.90;;;;;;5035781;28;20420;-71
2021/03/25 02:42:02;;;;;;;1999.90;999.90;;;6.40;99.90;;;;;;5036077;28;20442;-71
2021/03/25 02:44:36;;;;;;;1999.90;999.90;;;6.30;99.90;;;;;;5035716;28;20410;-69
2021/03/25 02:47:08;;;;;;;1999.90;999.90;;;6.30;99.90;;;;;;5035476;28;20403;-70
2021/03/25 02:49:43;;;;;;;1999.90;999.90;;;6.30;99.90;;;;;;5035557;28;20423;-70
2021/03/25 02:52:30;;;;;;;1999.90;999.90;;;6.50;99.90;;;;;;5034322;28;20407;-71
2021/03/25 02:54:57;;;;;;;1999.90;999.90;;;6.50;99.90;;;;;;5035360;28;20398;-71
2021/03/25 02:57:30;;;;;;;1999.90;999.90;;;6.50;99.90;;;;;;5035426;28;20427;-71
2021/03/25 03:00:01;;;;;;;1999.90;999.90;;;6.50;99.90;;;;;;5035430;28;20447;-70
2021/03/25 03:02:50;;;;;;;1999.90;999.90;;;6.50;99.90;;;;;;5035407;28;20409;-71
2021/03/25 03:05:20;;;;;;;1999.90;999.90;;;6.50;99.90;;;;;;5035124;28;20765;-70
2021/03/25 03:07:53;;;;;;;1999.90;999.90;;;6.50;99.90;;;;;;5035134;28;20401;-70
2021/03/25 03:10:23;;;;;;;1999.90;999.90;;;6.50;99.90;;;;;;5035253;28;20486;-71
2021/03/25 03:12:52;;;;;;;1999.90;999.90;;;6.60;99.90;;;;;;5035240;28;20476;-71
2021/03/25 03:15:31;;;;;;;1999.90;999.90;;;6.60;99.90;;;;;;5034869;28;20408;-70
2021/03/25 03:18:08;;;;;;;1999.90;999.90;;;6.50;99.90;;;;;;5035152;28;20769;-70
2021/03/25 03:20:48;;;;;;;1999.90;999.90;;;6.50;99.90;;;;;;5035131;28;20513;-70
2021/03/25 03:23:14;;;;;;;1999.90;999.90;;;6.50;99.90;;;;;;5035074;28;20413;-70
2021/03/25 03:25:40;;;;;;;1999.90;999.90;;;6.30;99.90;;;;;;5034742;28;20403;-71
2021/03/25 03:28:49;;;;;;;1999.90;999.90;;;6.20;99.90;;;;;;5033909;28;20430;-70
2021/03/25 03:31:22;;;;;;;1999.90;999.90;;;6.20;99.90;;;;;;5032844;28;20208;-71
2021/03/25 03:34:02;;;;;;;1999.90;999.90;;;6.10;99.90;;;;;;5034819;28;21214;-70
2021/03/25 03:36:29;;;;;;;1999.90;999.90;;;6.10;99.90;;;;;;5034475;28;20971;-71
2021/03/25 03:39:02;;;;;;;1999.90;999.90;;;6.10;99.90;;;;;;5034672;28;20572;-70
2021/03/25 03:41:33;;;;;;;1999.90;999.90;;;6.10;99.90;;;;;;5033494;28;20417;-70
2021/03/25 03:44:03;;;;;;;1999.90;999.90;;;6.00;99.90;;;;;;5033362;28;20479;-70
2021/03/25 03:46:30;;;;;;;1999.90;999.90;;;5.90;99.90;;;;;;5034380;28;20797;-71
2021/03/25 03:49:01;;;;;;;1999.90;999.90;;;5.80;99.90;;;;;;5034490;28;20435;-70
2021/03/25 03:51:34;;;;;;;1999.90;999.90;;;5.30;99.90;;;;;;5034404;28;20486;-70
2021/03/25 03:54:02;;;;;;;1999.90;999.90;;;5.30;99.90;;;;;;5034537;28;20423;-70
2021/03/25 03:56:58;;;;;;;1999.90;999.90;;;5.50;99.90;;;;;;5034093;28;20526;-71
2021/03/25 03:59:46;;;;;;;1999.90;999.90;;;5.70;99.90;;;;;;5034311;28;20454;-69
2021/03/25 04:02:19;;;;;;;1999.90;999.90;;;5.70;99.90;;;;;;5034281;28;20391;-70
2021/03/25 04:04:52;;;;;;;1999.90;999.90;;;5.90;99.90;;;;;;5034108;28;20897;-71
2021/03/25 04:07:27;;;;;;;1999.90;999.90;;;6.00;99.90;;;;;;5034305;28;20392;-70
2021/03/25 04:10:10;;;;;;;1999.90;999.90;;;6.10;99.90;;;;;;5033957;28;20470;-70
2021/03/25 04:12:40;;;;;;;1999.90;999.90;;;6.20;99.90;;;;;;5034172;28;20403;-70
2021/03/25 04:15:27;;;;;;;1999.90;999.90;;;6.30;99.90;;;;;;5032602;28;20403;-70
2021/03/25 04:18:08;;;;;;;1999.90;999.90;;;6.40;99.90;;;;;;5033998;28;20396;-71
2021/03/25 04:20:36;;;;;;;1999.90;999.90;;;6.60;99.90;;;;;;5034032;28;20490;-70
2021/03/25 04:23:09;;;;;;;1999.90;999.90;;;6.70;99.90;;;;;;5034022;28;20434;-70
2021/03/25 04:25:39;;;;;;;1999.90;999.90;;;6.70;99.90;;;;;;5033615;28;20407;-70
2021/03/25 04:28:11;;;;;;;1999.90;999.90;;;6.70;99.90;;;;;;5033798;28;20452;-70
2021/03/25 04:30:44;;;;;;;1999.90;999.90;;;6.80;99.90;;;;;;5033719;28;20967;-70
2021/03/25 04:33:13;;;;;;;1999.90;999.90;;;6.90;99.90;;;;;;5033742;28;20406;-70
2021/03/25 04:35:42;;;;;;;1999.90;999.90;;;6.90;99.90;;;;;;5033356;28;20400;-70
2021/03/25 04:38:14;;;;;;;1999.90;999.90;;;7.00;99.90;;;;;;5033496;28;20431;-70
2021/03/25 04:40:40;;;;;;;1999.90;999.90;;;7.00;99.90;;;;;;5033634;28;20407;-69
2021/03/25 04:43:06;;;;;;;1999.90;999.90;;;7.10;99.90;;;;;;5033548;28;20422;-70
2021/03/25 04:45:57;;;;;;;1999.90;999.90;;;7.10;99.90;;;;;;5033260;28;20415;-70
2021/03/25 04:48:31;;;;;;;1999.90;999.90;;;7.10;99.90;;;;;;5033387;28;20427;-69
2021/03/25 04:51:06;;;;;;;1999.90;999.90;;;7.10;99.90;;;;;;5033375;28;20463;-69
2021/03/25 04:53:36;;;;;;;1999.90;999.90;;;7.10;99.90;;;;;;5033957;28;20460;-70
2021/03/25 04:56:06;;;;;;;1999.90;999.90;;;7.10;99.90;;;;;;5032597;28;20490;-70
2021/03/25 04:58:35;;;;;;;1999.90;999.90;;;7.10;99.90;;;;;;5033086;28;20429;-69
2021/03/25 05:01:07;;;;;;;1999.90;999.90;;;7.20;99.90;;;;;;5033227;28;20491;-69
2021/03/25 05:03:34;;;;;;;1999.90;999.90;;;7.20;99.90;;;;;;5033063;28;20409;-70
2021/03/25 05:06:00;;;;;;;1999.90;999.90;;;7.30;99.90;;;;;;5032827;28;20403;-70
2021/03/25 05:08:30;;;;;;;1999.90;999.90;;;7.40;99.90;;;;;;5032806;28;20470;-70
2021/03/25 05:11:09;;;;;;;1999.90;999.90;;;7.30;99.90;;;;;;5032911;28;20532;-69
2021/03/25 05:13:39;;;;;;;1999.90;999.90;;;7.30;99.90;;;;;;5032984;28;20418;-70
2021/03/25 05:16:07;;;;;;;1999.90;999.90;;;7.30;99.90;;;;;;5032676;28;20411;-70
2021/03/25 05:18:36;;;;;;;1999.90;999.90;;;7.20;99.90;;;;;;5032682;28;20428;-70
2021/03/25 05:21:10;;;;;;;1999.90;999.90;;;7.20;99.90;;;;;;5032879;28;20408;-70
2021/03/25 05:24:08;;;;;;;1999.90;999.90;;;7.20;99.90;;;;;;5031538;28;20752;-70
2021/03/25 05:26:54;;;;;;;1999.90;999.90;;;7.20;99.90;;;;;;5032468;28;20443;-69
2021/03/25 05:29:22;;;;;;;1999.90;999.90;;;7.10;99.90;;;;;;5032905;28;20959;-70
2021/03/25 05:31:48;;;;;;;1999.90;999.90;;;7.00;99.90;;;;;;5032523;28;20458;-69
2021/03/25 05:34:15;;;;;;;1999.90;999.90;;;7.00;99.90;;;;;;5032604;28;20407;-70
2021/03/25 05:36:41;;;;;;;1999.90;999.90;;;6.90;99.90;;;;;;5032244;28;20409;-70
2021/03/25 05:39:07;;;;;;;1999.90;999.90;;;6.80;99.90;;;;;;5032446;28;20570;-70
2021/03/25 05:41:43;;;;;;;1999.90;999.90;;;6.90;99.90;;;;;;5032364;28;20442;-70
2021/03/25 05:44:43;;;;;;;1999.90;999.90;;;6.90;99.90;;;;;;5032485;28;20573;-70
2021/03/25 05:47:26;;;;;;;1999.90;999.90;;;7.00;99.90;;;;;;5032206;28;20415;-70
2021/03/25 05:50:10;;;;;;;1999.90;999.90;;;7.00;99.90;;;;;;5032213;28;20956;-69
2021/03/25 05:53:06;;;;;;;1999.90;999.90;;;7.00;99.90;;;;;;5032239;28;20406;-69
2021/03/25 05:55:57;;;;;;;1999.90;999.90;;;7.00;99.90;;;;;;5031997;28;20426;-69
2021/03/25 05:58:44;;;;;;;1999.90;999.90;;;7.00;99.90;;;;;;5032229;28;20928;-69
2021/03/25 06:01:33;;;;;;;1999.90;999.90;;;7.00;99.90;;;;;;5032158;28;20443;-69
2021/03/25 06:04:05;;;;;;;1999.90;999.90;;;7.10;99.90;;;;;;5032224;28;20414;-69
2021/03/25 06:06:53;;;;;;;1999.90;999.90;;;7.10;99.90;;;;;;5031363;28;20470;-70
2021/03/25 06:09:25;;;;;;;1999.90;999.90;;;7.10;99.90;;;;;;5012576;28;20845;-70
2021/03/25 06:12:18;;;;;;;1999.90;999.90;;;7.10;99.90;;;;;;5032185;28;20500;-69
2021/03/25 06:15:11;;;;;;;1999.90;999.90;;;7.10;99.90;;;;;;5031857;28;20946;-70
2021/03/25 06:17:52;;;;;;;1999.90;999.90;;;7.10;99.90;;;;;;5032028;28;20430;-70
2021/03/25 06:20:51;;;;;;;1999.90;999.90;;;7.20;99.90;;;;;;5031843;28;20977;-70
2021/03/25 06:23:39;;;;;;;1999.90;999.90;;;7.20;99.90;;;;;;5031991;28;20806;-70
2021/03/25 06:26:19;;;;;;;1999.90;999.90;;;7.20;99.90;;;;;;5031691;28;20426;-70
2021/03/25 06:28:55;;;;;;;1999.90;999.90;;;7.30;99.90;;;;;;5031745;28;20791;-70
2021/03/25 06:31:33;;;;;;;1999.90;999.90;;;7.30;99.90;;;;;;5031653;28;20537;-69
2021/03/25 06:34:07;;;;;;;1999.90;999.90;;;7.30;99.90;;;;;;5031877;28;20403;-70
2021/03/25 06:36:51;;;;;;;1999.90;999.90;;;7.40;99.90;;;;;;5031539;28;20398;-70
2021/03/25 06:39:28;;;;;;;1999.90;999.90;;;7.40;99.90;;;;;;5031707;28;20509;-69
2021/03/25 06:41:56;;;;;;;1999.90;999.90;;;7.50;99.90;;;;;;5031807;28;20400;-70
2021/03/25 06:44:30;;;;;;;1999.90;999.90;;;7.50;99.90;;;;;;5031757;28;20987;-70
2021/03/25 06:47:29;;;;;;;1999.90;999.90;;;7.60;99.90;;;;;;5031450;28;20410;-69
2021/03/25 06:49:59;;;;;;;1999.90;999.90;;;7.70;99.90;;;;;;5029278;28;21316;-70
2021/03/25 06:52:31;;;;;;;1999.90;999.90;;;7.80;99.90;;;;;;5031764;28;20427;-69
2021/03/25 06:55:19;;;;;;;1999.90;999.90;;;7.90;99.90;;;;;;5031311;28;20438;-70
2021/03/25 06:58:06;;;;;;;1999.90;999.90;;;8.10;99.90;;;;;;5031468;28;20397;-70
2021/03/25 07:00:36;;;;;;;1999.90;999.90;;;8.10;99.90;;;;;;5031532;28;20754;-70
2021/03/25 07:03:05;;;;;;;1999.90;999.90;;;8.30;99.90;;;;;;5031465;28;20434;-70
2021/03/25 07:05:33;;;;;;;1999.90;999.90;;;8.40;99.90;;;;;;5031189;28;20769;-69
2021/03/25 07:08:23;;;;;;;1999.90;999.90;;;8.40;99.90;;;;;;5031153;28;20429;-71
2021/03/25 07:10:52;;;;;;;1999.90;999.90;;;8.60;99.90;;;;;;5031334;28;20444;-70
2021/03/25 07:13:25;;;;;;;1999.90;999.90;;;8.80;99.90;;;;;;5031515;28;20396;-70
2021/03/25 07:15:52;;;;;;;1999.90;999.90;;;8.90;99.90;;;;;;5031118;28;20441;-70
2021/03/25 07:18:34;;;;;;;1999.90;999.90;;;9.10;99.90;;;;;;5032035;28;20432;-71
2021/03/25 07:21:27;;;;;;;1999.90;999.90;;;9.10;99.90;;;;;;5035165;28;20400;-70
2021/03/25 07:23:55;;;;;;;1999.90;999.90;;;9.20;99.90;;;;;;5034955;28;20492;-70
2021/03/25 07:26:27;;;;;;;1999.90;999.90;;;9.30;99.90;;;;;;5034742;28;20403;-70
2021/03/25 07:29:21;;;;;;;1999.90;999.90;;;9.30;99.90;;;;;;5034902;28;20415;-70
2021/03/25 07:32:04;;;;;;;1999.90;999.90;;;9.40;99.90;;;;;;5033594;28;20473;-69
2021/03/25 07:34:32;;;;;;;1999.90;999.90;;;9.50;99.90;;;;;;5035054;28;20891;-69
2021/03/25 07:36:59;;;;;;;1999.90;999.90;;;9.60;99.90;;;;;;5034531;28;20401;-70
2021/03/25 07:39:31;;;;;;;1999.90;999.90;;;9.70;99.90;;;;;;5034696;28;20952;-70
2021/03/25 07:41:58;;;;;;;1999.90;999.90;;;9.80;99.90;;;;;;5034761;28;20390;-69
2021/03/25 07:44:24;;;;;;;1999.90;999.90;;;9.80;99.90;;;;;;5034620;28;20410;-70
2021/03/25 07:46:52;;;;;;;1999.90;999.90;;;9.90;99.90;;;;;;5034367;28;20490;-69
2021/03/25 07:49:22;;;;;;;1999.90;999.90;;;10.00;99.90;;;;;;5034595;28;20236;-70
2021/03/25 07:51:52;;;;;;;1999.90;999.90;;;10.10;99.90;;;;;;5034534;28;20454;-70
2021/03/25 07:54:26;;;;;;;1999.90;999.90;;;10.10;99.90;;;;;;5034473;28;20397;-70
2021/03/25 07:56:59;;;;;;;1999.90;999.90;;;10.20;99.90;;;;;;5034244;28;20398;-71
2021/03/25 07:59:33;;;;;;;1999.90;999.90;;;10.30;99.90;;;;;;5034431;28;20557;-70
2021/03/25 08:01:59;;;;;;;1999.90;999.90;;;10.50;99.90;;;;;;5034411;28;20397;-70
2021/03/25 08:04:27;;;;;;;1999.90;999.90;;;10.70;99.90;;;;;;5034364;28;20933;-69
2021/03/25 08:07:04;;;;;;;1999.90;999.90;;;10.90;99.90;;;;;;5033998;28;20165;-70
2021/03/25 08:09:44;;;;;;;1999.90;999.90;;;11.00;99.90;;;;;;5034121;28;20446;-70
2021/03/25 08:12:24;;;;;;;1999.90;999.90;;;11.00;99.90;;;;;;5034214;28;20408;-69
2021/03/25 08:14:51;;;;;;;1999.90;999.90;;;11.10;99.90;;;;;;5033819;28;20389;-70
2021/03/25 08:18:07;;;;;;;1999.90;999.90;;;11.00;99.90;;;;;;5034018;28;20402;-70
2021/03/25 08:20:39;;;;;;;1999.90;999.90;;;11.00;99.90;;;;;;5016320;28;20414;-70
2021/03/25 08:23:13;;;;;;;1999.90;999.90;;;10.90;99.90;;;;;;5033917;28;20961;-71
2021/03/25 08:25:44;;;;;;;1999.90;999.90;;;11.00;99.90;;;;;;5033679;28;20395;-69
2021/03/25 08:28:41;;;;;;;1999.90;999.90;;;11.10;99.90;;;;;;5033750;28;20461;-70
2021/03/25 08:31:22;;;;;;;1999.90;999.90;;;11.20;99.90;;;;;;5032950;28;20500;-70
2021/03/25 08:34:05;;;;;;;1999.90;999.90;;;11.30;99.90;;;;;;5033801;28;20407;-71
2021/03/25 08:36:34;;;;;;;1999.90;999.90;;;11.40;99.90;;;;;;5033765;28;20893;-70
2021/03/25 08:39:02;;;;;;;1999.90;999.90;;;11.60;99.90;;;;;;5033531;28;20427;-70
2021/03/25 08:41:31;;;;;;;1999.90;999.90;;;11.70;99.90;;;;;;5033604;28;21017;-69
2021/03/25 08:44:29;;;;;;;1999.90;999.90;;;11.90;99.90;;;;;;5033448;28;20460;-69
2021/03/25 08:47:04;;;;;;;1999.90;999.90;;;12.10;99.90;;;;;;5033304;28;20406;-70
2021/03/25 08:49:57;;;;;;;1999.90;999.90;;;12.40;99.90;;;;;;5033442;28;20422;-69
2021/03/25 08:52:25;;;;;;;1999.90;999.90;;;12.60;99.90;;;;;;5033460;28;20407;-70
2021/03/25 08:55:16;;;;;;;1999.90;999.90;;;12.50;99.90;;;;;;5033030;28;20395;-70
2021/03/25 08:57:43;;;;;;;1999.90;999.90;;;12.40;99.90;;;;;;5033251;28;20395;-70
2021/03/25 09:00:15;;;;;;;1999.90;999.90;;;12.40;99.90;;;;;;5033250;28;20407;-69
2021/03/25 09:02:43;;;;;;;1999.90;999.90;;;12.20;99.90;;;;;;5033296;28;20440;-69
2021/03/25 09:05:30;;;;;;;1999.90;999.90;;;12.00;99.90;;;;;;5031041;28;20947;-69
2021/03/25 09:07:59;;;;;;;1999.90;999.90;;;11.90;99.90;;;;;;5032027;28;20537;-69
2021/03/25 09:10:46;;;;;;;1999.90;999.90;;;11.70;99.90;;;;;;5032307;28;20458;-70
2021/03/25 09:13:19;;;;;;;1999.90;999.90;;;11.60;99.90;;;;;;5029244;28;20408;-68
2021/03/25 09:15:46;;;;;;;1999.90;999.90;;;11.70;99.90;;;;;;5028377;28;20469;-71
2021/03/25 09:18:19;;;;;;;1999.90;999.90;;;11.60;99.90;;;;;;5030190;28;20834;-71
2021/03/25 09:20:49;;;;;;;1999.90;999.90;;;11.70;99.90;;;;;;5030306;28;20406;-69
2021/03/25 09:23:30;;;;;;;1999.90;999.90;;;11.90;99.90;;;;;;5031072;28;20407;-70
2021/03/25 09:26:20;;;;;;;1999.90;999.90;;;12.10;99.90;;;;;;5030311;28;20413;-70
2021/03/25 09:29:06;;;;;;;1999.90;999.90;;;12.30;99.90;;;;;;5029939;28;20463;-72
2021/03/25 09:31:35;;;;;;;1999.90;999.90;;;12.40;99.90;;;;;;5030767;28;20453;-72
2021/03/25 09:34:10;;;;;;;1999.90;999.90;;;12.50;99.90;;;;;;5030606;28;20498;-71
2021/03/25 09:36:35;;;;;;;1999.90;999.90;;;12.60;99.90;;;;;;5029753;28;20387;-72
2021/03/25 09:39:04;;;;;;;1999.90;999.90;;;12.70;99.90;;;;;;5030440;28;20422;-71
2021/03/25 09:41:30;;;;;;;1999.90;999.90;;;12.70;99.90;;;;;;5030578;28;20169;-72
2021/03/25 09:44:08;;;;;;;1999.90;999.90;;;12.70;99.90;;;;;;5029970;28;20501;-72
2021/03/25 09:46:54;;;;;;;1999.90;999.90;;;12.60;99.90;;;;;;5030135;28;20500;-72
2021/03/25 09:49:27;;;;;;;1999.90;999.90;;;12.70;99.90;;;;;;5030690;28;20423;-71
2021/03/25 09:52:08;;;;;;;1999.90;999.90;;;12.70;99.90;;;;;;5029928;28;20460;-71
2021/03/25 09:54:41;;;;;;;1999.90;999.90;;;12.90;99.90;;;;;;5030078;28;20774;-71
2021/03/25 09:57:18;;;;;;;1999.90;999.90;;;13.10;99.90;;;;;;5029924;28;20415;-70
2021/03/25 09:59:51;;;;;;;1999.90;999.90;;;13.40;99.90;;;;;;5030055;28;20415;-71
2021/03/25 10:02:42;;;;;;;1999.90;999.90;;;13.50;99.90;;;;;;5030256;28;20438;-71
2021/03/25 10:05:19;;;;;;;1999.90;999.90;;;13.60;99.90;;;;;;5029149;28;20473;-71
2021/03/25 10:07:46;;;;;;;1999.90;999.90;;;13.80;99.90;;;;;;5030095;28;20452;-71
2021/03/25 10:10:34;;;;;;;1999.90;999.90;;;13.80;99.90;;;;;;5028723;28;20446;-71
2021/03/25 10:13:00;;;;;;;1999.90;999.90;;;14.10;99.90;;;;;;5029751;28;20400;-71
2021/03/25 10:15:37;;;;;;;1999.90;999.90;;;14.30;99.90;;;;;;5029490;28;20405;-71
2021/03/25 10:18:14;;;;;;;1999.90;999.90;;;14.50;99.90;;;;;;5029798;28;20207;-71
2021/03/25 10:20:49;;;;;;;1999.90;999.90;;;14.60;99.90;;;;;;5029594;28;20399;-71
2021/03/25 10:23:26;;;;;;;1999.90;999.90;;;14.90;99.90;;;;;;5029703;28;20500;-71
2021/03/25 10:26:04;;;;;;;1999.90;999.90;;;15.10;99.90;;;;;;5026955;28;20431;-71
2021/03/25 10:29:04;;;;;;;1999.90;999.90;;;15.20;99.90;;;;;;5029981;28;20443;-71
2021/03/25 10:31:39;;;;;;;1999.90;999.90;;;15.10;99.90;;;;;;5022007;28;20855;-70
2021/03/25 10:34:34;;;;;;;1999.90;999.90;;;15.50;99.90;;;;;;5030147;28;20837;-71
2021/03/25 10:37:05;;;;;;;1999.90;999.90;;;15.70;99.90;;;;;;5029901;28;20515;-71
2021/03/25 10:39:40;;;;;;;1999.90;999.90;;;15.90;99.90;;;;;;5030147;28;20460;-71
2021/03/25 10:42:26;;;;;;;1999.90;999.90;;;15.80;99.90;;;;;;5029958;28;20401;-71
2021/03/25 10:44:53;;;;;;;1999.90;999.90;;;15.40;99.90;;;;;;5029922;28;20775;-71
2021/03/25 10:47:30;;;;;;;1999.90;999.90;;;15.20;99.90;;;;;;5030126;28;20403;-71
2021/03/25 10:49:59;;;;;;;1999.90;999.90;;;15.40;99.90;;;;;;5029628;28;20455;-71
2021/03/25 10:52:41;;;;;;;1999.90;999.90;;;15.50;99.90;;;;;;5030239;28;20467;-71
2021/03/25 10:55:28;;;;;;;1999.90;999.90;;;15.70;99.90;;;;;;5033597;28;20406;-72
2021/03/25 10:57:56;;;;;;;1999.90;999.90;;;15.80;99.90;;;;;;5033481;28;20763;-72
2021/03/25 11:00:32;;;;;;;1999.90;999.90;;;15.90;99.90;;;;;;5034145;28;20421;-71
2021/03/25 11:02:59;;;;;;;1999.90;999.90;;;16.00;99.90;;;;;;5034011;28;20407;-71
2021/03/25 11:05:30;;;;;;;1999.90;999.90;;;16.00;99.90;;;;;;5033145;28;20456;-72
2021/03/25 11:07:59;;;;;;;1999.90;999.90;;;16.20;99.90;;;;;;5033726;28;20409;-71
2021/03/25 11:10:34;;;;;;;1999.90;999.90;;;16.30;99.90;;;;;;5033895;28;20990;-71
2021/03/25 11:13:11;;;;;;;1999.90;999.90;;;16.00;99.90;;;;;;5033555;28;20393;-71
2021/03/25 11:15:44;;;;;;;1999.90;999.90;;;15.40;99.90;;;;;;5033413;28;20393;-71
2021/03/25 11:18:17;;;;;;;1999.90;999.90;;;15.10;99.90;;;;;;5033592;28;20422;-71
2021/03/25 11:20:43;;;;;;;1999.90;999.90;;;14.80;99.90;;;;;;5033498;28;20390;-72
2021/03/25 11:23:14;;;;;;;1999.90;999.90;;;14.80;99.90;;;;;;5033756;28;20767;-70
2021/03/25 11:25:40;;;;;;;1999.90;999.90;;;14.60;99.90;;;;;;5033473;28;20405;-71
2021/03/25 11:28:16;;;;;;;1999.90;999.90;;;14.40;99.90;;;;;;5033230;28;20441;-72
2021/03/25 11:30:46;;;;;;;1999.90;999.90;;;14.40;99.90;;;;;;5033564;28;20606;-72
2021/03/25 11:33:34;;;;;;;1999.90;999.90;;;14.40;99.90;;;;;;5032351;28;20828;-71
2021/03/25 11:36:02;;;;;;;1999.90;999.90;;;14.30;99.90;;;;;;5033071;28;20402;-71
2021/03/25 11:38:31;;;;;;;1999.90;999.90;;;14.40;99.90;;;;;;5033048;28;20467;-68
2021/03/25 11:41:04;;;;;;;1999.90;999.90;;;14.40;99.90;;;;;;5033354;28;20404;-70
2021/03/25 11:43:52;;;;;;;1999.90;999.90;;;14.30;99.90;;;;;;5033503;28;20420;-68
2021/03/25 11:46:26;;;;;;;1999.90;999.90;;;14.40;99.90;;;;;;5033126;28;20425;-67
2021/03/25 11:49:00;;;;;;;1999.90;999.90;;;14.70;99.90;;;;;;5032751;28;20939;-66
2021/03/25 11:51:26;;;;;;;1999.90;999.90;;;15.30;99.90;;;;;;5033099;28;20426;-66
2021/03/25 11:53:55;;;;;;;1999.90;999.90;;;15.60;99.90;;;;;;5033015;28;20446;-67
2021/03/25 11:56:32;;;;;;;1999.90;999.90;;;16.30;99.90;;;;;;5032632;28;20928;-66
2021/03/25 11:59:13;;;;;;;1999.90;999.90;;;17.20;99.90;;;;;;5032731;28;20425;-68
2021/03/25 12:01:41;;;;;;;1999.90;999.90;;;18.00;99.90;;;;;;5033087;28;20411;-70
2021/03/25 12:04:18;;;;;;;1999.90;999.90;;;18.60;99.90;;;;;;5032113;28;20406;-70
2021/03/25 12:07:10;;;;;;;1999.90;999.90;;;19.50;99.90;;;;;;5032095;28;20412;-70
2021/03/25 12:09:36;;;;;;;1999.90;999.90;;;19.60;99.90;;;;;;5032803;28;20439;-70
2021/03/25 12:12:01;;;;;;;1999.90;999.90;;;18.80;99.90;;;;;;5032318;28;20464;-70
2021/03/25 12:14:28;;;;;;;1999.90;999.90;;;18.30;99.90;;;;;;5032307;28;20201;-70
2021/03/25 12:16:57;;;;;;;1999.90;999.90;;;17.90;99.90;;;;;;5032596;28;20691;-70
2021/03/25 12:19:23;;;;;;;1999.90;999.90;;;17.30;99.90;;;;;;5031977;28;20769;-70
2021/03/25 12:21:49;;;;;;;1999.90;999.90;;;17.20;99.90;;;;;;5032729;28;20443;-70
2021/03/25 12:24:15;;;;;;;1999.90;999.90;;;17.40;99.90;;;;;;5032424;28;20399;-70
2021/03/25 12:26:40;;;;;;;1999.90;999.90;;;17.50;99.90;;;;;;5031772;28;20414;-70
2021/03/25 12:29:06;;;;;;;1999.90;999.90;;;17.70;99.90;;;;;;5032435;28;20206;-70
2021/03/25 12:31:35;;;;;;;1999.90;999.90;;;18.10;99.90;;;;;;5031169;28;20208;-70
2021/03/25 12:34:01;;;;;;;1999.90;999.90;;;18.10;99.90;;;;;;5031677;28;20167;-70
2021/03/25 12:36:28;;;;;;;1999.90;999.90;;;18.00;99.90;;;;;;5031844;28;20792;-70
2021/03/25 12:38:54;;;;;;;1999.90;999.90;;;18.00;99.90;;;;;;5031882;28;20423;-70
2021/03/25 12:41:28;;;;;;;1999.90;999.90;;;17.90;99.90;;;;;;5031682;28;20509;-70
2021/03/25 12:43:54;;;;;;;1999.90;999.90;;;17.20;99.90;;;;;;5032126;28;20175;-70